Brandon, Colorado
Current Conditions -  °F | °C
As of 2:53 AM on Friday 24 Oct 2014 (Local Time) from KLAA Reporting Station
Clear Clear  
Wind Chill: 39°   Ceiling: Unl
Heat Index: 42°   Visibility: 10mi
Dew Point: 39°   Wind: 5mph
Humidity: 89%   Direction: 190°S
Pressure: 30.09"   Gusts: NA
Location:  38.4343°N, 102.505°W
Report Text: KLAA 240853Z AUTO 19004KT 10SM CLR 06/04 A3009 RMK AO2 SLP160 T00560039 51001
Loading
Personal Weather Stations






























Interactive Weather Map
Tropical Storm Tracking
New forecast layout! Learn more

10-Day Weather Forecast

Advertisements
Track Severe Weather on mobile